sensor_id;sensor_type;location;lat;lon;timestamp;P1;durP1;ratioP1;P2;durP2;ratioP2
21786;SDS011;11055;50.870;4.316;2024-01-16T00:01:14;11.60;;;4.00;;
21786;SDS011;11055;50.870;4.316;2024-01-16T00:03:40;14.40;;;4.32;;
21786;SDS011;11055;50.870;4.316;2024-01-16T00:06:05;7.85;;;3.50;;
21786;SDS011;11055;50.870;4.316;2024-01-16T00:08:32;12.13;;;3.50;;
21786;SDS011;11055;50.870;4.316;2024-01-16T00:10:58;8.52;;;3.40;;
21786;SDS011;11055;50.870;4.316;2024-01-16T00:13:24;12.07;;;4.50;;
21786;SDS011;11055;50.870;4.316;2024-01-16T00:15:49;8.82;;;3.90;;
21786;SDS011;11055;50.870;4.316;2024-01-16T00:18:15;13.57;;;3.60;;
21786;SDS011;11055;50.870;4.316;2024-01-16T00:20:41;10.40;;;3.65;;
21786;SDS011;11055;50.870;4.316;2024-01-16T00:23:07;16.10;;;4.20;;
21786;SDS011;11055;50.870;4.316;2024-01-16T00:25:32;10.48;;;3.35;;
21786;SDS011;11055;50.870;4.316;2024-01-16T00:27:58;9.80;;;3.50;;
21786;SDS011;11055;50.870;4.316;2024-01-16T00:30:23;9.63;;;3.13;;
21786;SDS011;11055;50.870;4.316;2024-01-16T00:32:49;10.80;;;3.78;;
21786;SDS011;11055;50.870;4.316;2024-01-16T00:35:15;8.23;;;3.45;;
21786;SDS011;11055;50.870;4.316;2024-01-16T00:37:40;13.32;;;3.75;;
21786;SDS011;11055;50.870;4.316;2024-01-16T00:40:06;10.98;;;3.25;;
21786;SDS011;11055;50.870;4.316;2024-01-16T00:42:34;7.97;;;3.38;;
21786;SDS011;11055;50.870;4.316;2024-01-16T00:44:59;13.18;;;3.42;;
21786;SDS011;11055;50.870;4.316;2024-01-16T00:47:25;11.15;;;3.33;;
21786;SDS011;11055;50.870;4.316;2024-01-16T00:49:51;7.82;;;3.50;;
21786;SDS011;11055;50.870;4.316;2024-01-16T00:52:17;8.85;;;4.55;;
21786;SDS011;11055;50.870;4.316;2024-01-16T00:54:43;12.63;;;3.58;;
21786;SDS011;11055;50.870;4.316;2024-01-16T00:57:09;11.48;;;3.95;;
21786;SDS011;11055;50.870;4.316;2024-01-16T00:59:34;10.43;;;3.28;;
21786;SDS011;11055;50.870;4.316;2024-01-16T01:02:00;12.95;;;3.88;;
21786;SDS011;11055;50.870;4.316;2024-01-16T01:04:25;12.02;;;3.72;;
21786;SDS011;11055;50.870;4.316;2024-01-16T01:06:51;9.02;;;3.97;;
21786;SDS011;11055;50.870;4.316;2024-01-16T01:09:17;9.73;;;3.97;;
21786;SDS011;11055;50.870;4.316;2024-01-16T01:11:43;14.57;;;4.75;;
21786;SDS011;11055;50.870;4.316;2024-01-16T01:14:08;11.05;;;4.22;;
21786;SDS011;11055;50.870;4.316;2024-01-16T01:16:34;7.55;;;3.90;;
21786;SDS011;11055;50.870;4.316;2024-01-16T01:19:00;9.48;;;4.20;;
21786;SDS011;11055;50.870;4.316;2024-01-16T01:21:25;12.20;;;3.78;;
21786;SDS011;11055;50.870;4.316;2024-01-16T01:23:51;19.85;;;4.55;;
21786;SDS011;11055;50.870;4.316;2024-01-16T01:26:17;10.20;;;4.13;;
21786;SDS011;11055;50.870;4.316;2024-01-16T01:28:45;11.30;;;4.63;;
21786;SDS011;11055;50.870;4.316;2024-01-16T01:31:11;11.27;;;4.00;;
21786;SDS011;11055;50.870;4.316;2024-01-16T01:33:37;8.05;;;4.30;;
21786;SDS011;11055;50.870;4.316;2024-01-16T01:36:04;11.80;;;4.88;;
21786;SDS011;11055;50.870;4.316;2024-01-16T01:38:29;9.32;;;4.30;;
21786;SDS011;11055;50.870;4.316;2024-01-16T01:40:56;14.65;;;4.95;;
21786;SDS011;11055;50.870;4.316;2024-01-16T01:43:23;11.73;;;4.43;;
21786;SDS011;11055;50.870;4.316;2024-01-16T01:48:24;9.43;;;4.13;;
21786;SDS011;11055;50.870;4.316;2024-01-16T01:50:49;8.40;;;4.68;;
21786;SDS011;11055;50.870;4.316;2024-01-16T01:53:15;11.48;;;4.82;;
21786;SDS011;11055;50.870;4.316;2024-01-16T01:55:42;12.77;;;4.20;;
21786;SDS011;11055;50.870;4.316;2024-01-16T01:58:08;14.88;;;4.93;;
21786;SDS011;11055;50.870;4.316;2024-01-16T02:00:34;9.38;;;4.57;;
21786;SDS011;11055;50.870;4.316;2024-01-16T02:03:00;12.13;;;4.60;;
21786;SDS011;11055;50.870;4.316;2024-01-16T02:05:25;9.95;;;4.30;;
21786;SDS011;11055;50.870;4.316;2024-01-16T02:07:52;10.77;;;4.90;;
21786;SDS011;11055;50.870;4.316;2024-01-16T02:10:18;13.15;;;4.63;;
21786;SDS011;11055;50.870;4.316;2024-01-16T02:12:44;10.52;;;4.97;;
21786;SDS011;11055;50.870;4.316;2024-01-16T02:15:10;13.48;;;4.53;;
21786;SDS011;11055;50.870;4.316;2024-01-16T02:17:35;10.23;;;4.65;;
21786;SDS011;11055;50.870;4.316;2024-01-16T02:20:01;7.15;;;4.38;;
21786;SDS011;11055;50.870;4.316;2024-01-16T02:22:27;9.43;;;4.40;;
21786;SDS011;11055;50.870;4.316;2024-01-16T02:24:55;12.63;;;4.88;;
21786;SDS011;11055;50.870;4.316;2024-01-16T02:27:21;11.95;;;4.43;;
21786;SDS011;11055;50.870;4.316;2024-01-16T02:29:47;12.30;;;5.00;;
21786;SDS011;11055;50.870;4.316;2024-01-16T02:32:13;12.23;;;5.18;;
21786;SDS011;11055;50.870;4.316;2024-01-16T02:34:39;10.63;;;5.00;;
21786;SDS011;11055;50.870;4.316;2024-01-16T02:37:05;10.90;;;4.55;;
21786;SDS011;11055;50.870;4.316;2024-01-16T02:39:30;8.98;;;4.80;;
21786;SDS011;11055;50.870;4.316;2024-01-16T02:41:56;11.38;;;5.00;;
21786;SDS011;11055;50.870;4.316;2024-01-16T02:44:22;8.65;;;4.97;;
21786;SDS011;11055;50.870;4.316;2024-01-16T02:46:47;13.32;;;5.30;;
21786;SDS011;11055;50.870;4.316;2024-01-16T02:49:13;10.45;;;5.00;;
21786;SDS011;11055;50.870;4.316;2024-01-16T02:51:39;11.02;;;5.55;;
21786;SDS011;11055;50.870;4.316;2024-01-16T02:54:07;11.95;;;4.88;;
21786;SDS011;11055;50.870;4.316;2024-01-16T02:56:33;15.65;;;5.70;;
21786;SDS011;11055;50.870;4.316;2024-01-16T02:58:58;13.38;;;5.13;;
21786;SDS011;11055;50.870;4.316;2024-01-16T03:01:24;9.73;;;5.18;;
21786;SDS011;11055;50.870;4.316;2024-01-16T03:03:50;9.75;;;5.65;;
21786;SDS011;11055;50.870;4.316;2024-01-16T03:06:22;10.32;;;5.03;;
21786;SDS011;11055;50.870;4.316;2024-01-16T03:08:49;10.80;;;4.97;;
21786;SDS011;11055;50.870;4.316;2024-01-16T03:11:15;10.18;;;4.97;;
21786;SDS011;11055;50.870;4.316;2024-01-16T03:13:40;12.13;;;4.70;;
21786;SDS011;11055;50.870;4.316;2024-01-16T03:16:06;12.30;;;5.28;;
21786;SDS011;11055;50.870;4.316;2024-01-16T03:18:33;17.10;;;7.70;;
21786;SDS011;11055;50.870;4.316;2024-01-16T03:20:59;16.38;;;5.90;;
21786;SDS011;11055;50.870;4.316;2024-01-16T03:23:24;13.52;;;5.15;;
21786;SDS011;11055;50.870;4.316;2024-01-16T03:25:50;11.18;;;5.78;;
21786;SDS011;11055;50.870;4.316;2024-01-16T03:28:16;11.73;;;5.63;;
21786;SDS011;11055;50.870;4.316;2024-01-16T03:30:41;9.70;;;5.15;;
21786;SDS011;11055;50.870;4.316;2024-01-16T03:33:07;11.43;;;6.40;;
21786;SDS011;11055;50.870;4.316;2024-01-16T03:35:33;12.32;;;5.82;;
21786;SDS011;11055;50.870;4.316;2024-01-16T03:37:58;11.85;;;5.85;;
21786;SDS011;11055;50.870;4.316;2024-01-16T03:40:24;14.05;;;5.75;;
21786;SDS011;11055;50.870;4.316;2024-01-16T03:42:50;10.55;;;5.43;;
21786;SDS011;11055;50.870;4.316;2024-01-16T03:45:16;13.23;;;6.07;;
21786;SDS011;11055;50.870;4.316;2024-01-16T03:47:41;12.75;;;5.72;;
21786;SDS011;11055;50.870;4.316;2024-01-16T03:50:07;15.68;;;6.20;;
21786;SDS011;11055;50.870;4.316;2024-01-16T03:52:33;13.82;;;5.78;;
21786;SDS011;11055;50.870;4.316;2024-01-16T03:54:59;11.15;;;5.00;;
21786;SDS011;11055;50.870;4.316;2024-01-16T03:57:24;11.75;;;5.30;;
21786;SDS011;11055;50.870;4.316;2024-01-16T03:59:50;12.82;;;5.03;;
21786;SDS011;11055;50.870;4.316;2024-01-16T04:02:16;13.07;;;5.50;;
21786;SDS011;11055;50.870;4.316;2024-01-16T04:04:41;14.85;;;6.25;;
21786;SDS011;11055;50.870;4.316;2024-01-16T04:07:07;13.90;;;5.65;;
21786;SDS011;11055;50.870;4.316;2024-01-16T04:09:32;10.50;;;5.63;;
21786;SDS011;11055;50.870;4.316;2024-01-16T04:11:58;13.85;;;5.63;;
21786;SDS011;11055;50.870;4.316;2024-01-16T04:14:24;11.48;;;5.53;;
21786;SDS011;11055;50.870;4.316;2024-01-16T04:16:49;11.27;;;5.07;;
21786;SDS011;11055;50.870;4.316;2024-01-16T04:19:15;14.50;;;6.13;;
21786;SDS011;11055;50.870;4.316;2024-01-16T04:21:40;9.25;;;5.68;;
21786;SDS011;11055;50.870;4.316;2024-01-16T04:24:06;12.50;;;5.60;;
21786;SDS011;11055;50.870;4.316;2024-01-16T04:26:35;10.00;;;5.65;;
21786;SDS011;11055;50.870;4.316;2024-01-16T04:29:02;12.43;;;5.63;;
21786;SDS011;11055;50.870;4.316;2024-01-16T04:31:28;13.15;;;5.70;;
21786;SDS011;11055;50.870;4.316;2024-01-16T04:33:54;12.70;;;6.20;;
21786;SDS011;11055;50.870;4.316;2024-01-16T04:36:20;14.32;;;5.78;;
21786;SDS011;11055;50.870;4.316;2024-01-16T04:38:45;11.75;;;6.20;;
21786;SDS011;11055;50.870;4.316;2024-01-16T04:41:11;12.60;;;6.22;;
21786;SDS011;11055;50.870;4.316;2024-01-16T04:43:37;9.15;;;6.20;;
21786;SDS011;11055;50.870;4.316;2024-01-16T04:46:02;11.82;;;6.18;;
21786;SDS011;11055;50.870;4.316;2024-01-16T04:48:28;13.00;;;6.47;;
21786;SDS011;11055;50.870;4.316;2024-01-16T04:50:53;11.38;;;6.22;;
21786;SDS011;11055;50.870;4.316;2024-01-16T04:53:19;14.18;;;6.85;;
21786;SDS011;11055;50.870;4.316;2024-01-16T04:55:45;9.07;;;6.13;;
21786;SDS011;11055;50.870;4.316;2024-01-16T04:58:10;16.08;;;7.10;;
21786;SDS011;11055;50.870;4.316;2024-01-16T05:00:36;18.95;;;7.25;;
21786;SDS011;11055;50.870;4.316;2024-01-16T05:03:05;13.05;;;6.68;;
21786;SDS011;11055;50.870;4.316;2024-01-16T05:05:30;16.58;;;6.90;;
21786;SDS011;11055;50.870;4.316;2024-01-16T05:07:56;11.25;;;6.22;;
21786;SDS011;11055;50.870;4.316;2024-01-16T05:10:22;17.38;;;6.63;;
21786;SDS011;11055;50.870;4.316;2024-01-16T05:12:47;18.10;;;7.95;;
21786;SDS011;11055;50.870;4.316;2024-01-16T05:15:13;21.33;;;9.45;;
21786;SDS011;11055;50.870;4.316;2024-01-16T05:17:39;12.65;;;7.60;;
21786;SDS011;11055;50.870;4.316;2024-01-16T05:20:06;12.43;;;7.28;;
21786;SDS011;11055;50.870;4.316;2024-01-16T05:22:32;15.68;;;6.78;;
21786;SDS011;11055;50.870;4.316;2024-01-16T05:24:59;15.57;;;6.82;;
21786;SDS011;11055;50.870;4.316;2024-01-16T05:27:25;11.13;;;5.95;;
21786;SDS011;11055;50.870;4.316;2024-01-16T05:29:50;14.90;;;6.47;;
21786;SDS011;11055;50.870;4.316;2024-01-16T05:32:16;12.52;;;6.68;;
21786;SDS011;11055;50.870;4.316;2024-01-16T05:34:42;15.07;;;8.70;;
21786;SDS011;11055;50.870;4.316;2024-01-16T05:37:07;12.43;;;6.55;;
21786;SDS011;11055;50.870;4.316;2024-01-16T05:39:33;14.15;;;6.22;;
21786;SDS011;11055;50.870;4.316;2024-01-16T05:41:59;14.60;;;6.95;;
21786;SDS011;11055;50.870;4.316;2024-01-16T05:44:24;13.70;;;6.57;;
21786;SDS011;11055;50.870;4.316;2024-01-16T05:46:50;10.93;;;6.30;;
21786;SDS011;11055;50.870;4.316;2024-01-16T05:49:16;11.18;;;6.50;;
21786;SDS011;11055;50.870;4.316;2024-01-16T05:51:41;10.73;;;5.88;;
21786;SDS011;11055;50.870;4.316;2024-01-16T05:54:07;12.27;;;6.10;;
21786;SDS011;11055;50.870;4.316;2024-01-16T05:56:32;12.00;;;6.50;;
21786;SDS011;11055;50.870;4.316;2024-01-16T05:58:59;14.40;;;6.68;;
21786;SDS011;11055;50.870;4.316;2024-01-16T06:01:24;12.15;;;6.43;;
21786;SDS011;11055;50.870;4.316;2024-01-16T06:03:52;12.50;;;6.00;;
21786;SDS011;11055;50.870;4.316;2024-01-16T06:06:17;12.98;;;6.13;;
21786;SDS011;11055;50.870;4.316;2024-01-16T06:08:44;16.17;;;6.75;;
21786;SDS011;11055;50.870;4.316;2024-01-16T06:11:10;20.42;;;6.85;;
21786;SDS011;11055;50.870;4.316;2024-01-16T06:13:37;9.63;;;5.50;;
21786;SDS011;11055;50.870;4.316;2024-01-16T06:16:05;13.57;;;6.70;;
21786;SDS011;11055;50.870;4.316;2024-01-16T06:18:33;13.32;;;6.50;;
21786;SDS011;11055;50.870;4.316;2024-01-16T06:20:59;13.48;;;6.32;;
21786;SDS011;11055;50.870;4.316;2024-01-16T06:23:25;16.50;;;6.95;;
21786;SDS011;11055;50.870;4.316;2024-01-16T06:25:50;13.07;;;6.57;;
21786;SDS011;11055;50.870;4.316;2024-01-16T06:28:16;14.10;;;7.20;;
21786;SDS011;11055;50.870;4.316;2024-01-16T06:30:42;13.90;;;6.38;;
21786;SDS011;11055;50.870;4.316;2024-01-16T06:33:07;14.43;;;6.07;;
21786;SDS011;11055;50.870;4.316;2024-01-16T06:35:33;15.13;;;6.75;;
21786;SDS011;11055;50.870;4.316;2024-01-16T06:37:59;10.75;;;6.07;;
21786;SDS011;11055;50.870;4.316;2024-01-16T06:40:24;13.75;;;6.53;;
21786;SDS011;11055;50.870;4.316;2024-01-16T06:42:50;12.43;;;6.78;;
21786;SDS011;11055;50.870;4.316;2024-01-16T06:45:15;11.77;;;6.35;;
21786;SDS011;11055;50.870;4.316;2024-01-16T06:47:42;10.93;;;6.57;;
21786;SDS011;11055;50.870;4.316;2024-01-16T06:50:07;16.08;;;6.88;;
21786;SDS011;11055;50.870;4.316;2024-01-16T06:52:33;14.10;;;6.22;;
21786;SDS011;11055;50.870;4.316;2024-01-16T06:54:59;10.38;;;6.63;;
21786;SDS011;11055;50.870;4.316;2024-01-16T06:57:24;13.15;;;5.80;;
21786;SDS011;11055;50.870;4.316;2024-01-16T06:59:50;11.98;;;6.28;;
21786;SDS011;11055;50.870;4.316;2024-01-16T07:02:16;12.23;;;6.03;;
21786;SDS011;11055;50.870;4.316;2024-01-16T07:04:41;12.43;;;6.07;;
21786;SDS011;11055;50.870;4.316;2024-01-16T07:07:07;13.30;;;6.07;;
21786;SDS011;11055;50.870;4.316;2024-01-16T07:09:33;18.23;;;6.80;;
21786;SDS011;11055;50.870;4.316;2024-01-16T07:11:58;14.70;;;6.47;;
21786;SDS011;11055;50.870;4.316;2024-01-16T07:14:24;15.55;;;6.38;;
21786;SDS011;11055;50.870;4.316;2024-01-16T07:16:50;12.23;;;6.07;;
21786;SDS011;11055;50.870;4.316;2024-01-16T07:19:16;15.52;;;5.65;;
21786;SDS011;11055;50.870;4.316;2024-01-16T07:21:41;11.15;;;5.68;;
21786;SDS011;11055;50.870;4.316;2024-01-16T07:24:07;12.90;;;6.53;;
21786;SDS011;11055;50.870;4.316;2024-01-16T07:26:33;9.75;;;5.72;;
21786;SDS011;11055;50.870;4.316;2024-01-16T07:28:59;11.82;;;6.00;;
21786;SDS011;11055;50.870;4.316;2024-01-16T07:31:25;13.40;;;6.20;;
21786;SDS011;11055;50.870;4.316;2024-01-16T07:33:51;12.40;;;6.13;;
21786;SDS011;11055;50.870;4.316;2024-01-16T07:36:16;12.60;;;5.95;;
21786;SDS011;11055;50.870;4.316;2024-01-16T07:38:43;12.18;;;6.10;;
21786;SDS011;11055;50.870;4.316;2024-01-16T07:41:09;12.00;;;6.00;;
21786;SDS011;11055;50.870;4.316;2024-01-16T07:43:35;11.68;;;5.95;;
21786;SDS011;11055;50.870;4.316;2024-01-16T07:46:01;10.55;;;6.05;;
21786;SDS011;11055;50.870;4.316;2024-01-16T07:48:28;10.10;;;6.43;;
21786;SDS011;11055;50.870;4.316;2024-01-16T07:50:54;8.57;;;5.53;;
21786;SDS011;11055;50.870;4.316;2024-01-16T07:53:20;10.20;;;5.35;;
21786;SDS011;11055;50.870;4.316;2024-01-16T07:55:45;9.35;;;5.47;;
21786;SDS011;11055;50.870;4.316;2024-01-16T07:58:11;9.45;;;5.57;;
21786;SDS011;11055;50.870;4.316;2024-01-16T08:00:37;10.75;;;5.22;;
21786;SDS011;11055;50.870;4.316;2024-01-16T08:03:03;9.13;;;5.68;;
21786;SDS011;11055;50.870;4.316;2024-01-16T08:05:29;14.25;;;6.60;;
21786;SDS011;11055;50.870;4.316;2024-01-16T08:07:55;15.68;;;7.43;;
21786;SDS011;11055;50.870;4.316;2024-01-16T08:10:24;12.07;;;6.07;;
21786;SDS011;11055;50.870;4.316;2024-01-16T08:12:49;11.80;;;5.88;;
21786;SDS011;11055;50.870;4.316;2024-01-16T08:15:15;12.15;;;5.43;;
21786;SDS011;11055;50.870;4.316;2024-01-16T08:17:41;15.35;;;6.50;;
21786;SDS011;11055;50.870;4.316;2024-01-16T08:20:06;10.50;;;5.28;;
21786;SDS011;11055;50.870;4.316;2024-01-16T08:22:35;11.88;;;5.20;;
21786;SDS011;11055;50.870;4.316;2024-01-16T08:25:03;13.35;;;5.93;;
21786;SDS011;11055;50.870;4.316;2024-01-16T08:27:30;14.43;;;5.22;;
21786;SDS011;11055;50.870;4.316;2024-01-16T08:29:56;11.68;;;5.13;;
21786;SDS011;11055;50.870;4.316;2024-01-16T08:32:22;11.68;;;5.68;;
21786;SDS011;11055;50.870;4.316;2024-01-16T08:34:47;10.00;;;5.50;;
21786;SDS011;11055;50.870;4.316;2024-01-16T08:37:13;13.25;;;5.90;;
21786;SDS011;11055;50.870;4.316;2024-01-16T08:39:39;13.18;;;4.90;;
21786;SDS011;11055;50.870;4.316;2024-01-16T08:42:05;12.00;;;4.60;;
21786;SDS011;11055;50.870;4.316;2024-01-16T08:44:30;13.68;;;5.70;;
21786;SDS011;11055;50.870;4.316;2024-01-16T08:46:56;8.00;;;4.68;;
21786;SDS011;11055;50.870;4.316;2024-01-16T08:49:26;13.60;;;5.32;;
21786;SDS011;11055;50.870;4.316;2024-01-16T08:51:52;13.70;;;5.35;;
21786;SDS011;11055;50.870;4.316;2024-01-16T08:54:19;13.27;;;4.90;;
21786;SDS011;11055;50.870;4.316;2024-01-16T08:56:47;9.27;;;5.00;;
21786;SDS011;11055;50.870;4.316;2024-01-16T08:59:13;7.40;;;4.43;;
21786;SDS011;11055;50.870;4.316;2024-01-16T09:01:39;8.80;;;5.03;;
21786;SDS011;11055;50.870;4.316;2024-01-16T09:04:07;14.85;;;5.10;;
21786;SDS011;11055;50.870;4.316;2024-01-16T09:06:32;11.32;;;5.03;;
21786;SDS011;11055;50.870;4.316;2024-01-16T09:08:58;11.30;;;5.15;;
21786;SDS011;11055;50.870;4.316;2024-01-16T09:11:24;9.90;;;4.70;;
21786;SDS011;11055;50.870;4.316;2024-01-16T09:13:49;12.32;;;5.07;;
21786;SDS011;11055;50.870;4.316;2024-01-16T09:16:16;10.63;;;5.00;;
21786;SDS011;11055;50.870;4.316;2024-01-16T09:18:42;9.13;;;4.75;;
21786;SDS011;11055;50.870;4.316;2024-01-16T09:21:08;10.50;;;4.88;;
21786;SDS011;11055;50.870;4.316;2024-01-16T09:23:33;10.07;;;5.53;;
21786;SDS011;11055;50.870;4.316;2024-01-16T09:25:59;9.65;;;5.07;;
21786;SDS011;11055;50.870;4.316;2024-01-16T09:28:25;11.73;;;5.28;;
21786;SDS011;11055;50.870;4.316;2024-01-16T09:30:53;8.63;;;4.80;;
21786;SDS011;11055;50.870;4.316;2024-01-16T09:33:21;8.35;;;4.85;;
21786;SDS011;11055;50.870;4.316;2024-01-16T09:35:47;11.70;;;5.15;;
21786;SDS011;11055;50.870;4.316;2024-01-16T09:38:13;14.40;;;4.82;;
21786;SDS011;11055;50.870;4.316;2024-01-16T09:40:39;8.18;;;4.68;;
21786;SDS011;11055;50.870;4.316;2024-01-16T09:43:05;11.55;;;5.03;;
21786;SDS011;11055;50.870;4.316;2024-01-16T09:45:33;10.63;;;4.65;;
21786;SDS011;11055;50.870;4.316;2024-01-16T09:48:04;10.98;;;4.60;;
21786;SDS011;11055;50.870;4.316;2024-01-16T09:50:31;10.75;;;4.80;;
21786;SDS011;11055;50.870;4.316;2024-01-16T09:52:57;10.68;;;4.30;;
21786;SDS011;11055;50.870;4.316;2024-01-16T09:55:23;10.90;;;5.00;;
21786;SDS011;11055;50.870;4.316;2024-01-16T09:57:50;12.13;;;5.13;;
21786;SDS011;11055;50.870;4.316;2024-01-16T10:00:18;10.05;;;4.35;;
21786;SDS011;11055;50.870;4.316;2024-01-16T10:02:44;9.63;;;4.47;;
21786;SDS011;11055;50.870;4.316;2024-01-16T10:05:11;11.20;;;4.93;;
21786;SDS011;11055;50.870;4.316;2024-01-16T10:07:38;8.68;;;4.60;;
21786;SDS011;11055;50.870;4.316;2024-01-16T10:10:04;9.32;;;4.60;;
21786;SDS011;11055;50.870;4.316;2024-01-16T10:12:30;10.20;;;4.70;;
21786;SDS011;11055;50.870;4.316;2024-01-16T10:14:57;11.10;;;4.65;;
21786;SDS011;11055;50.870;4.316;2024-01-16T10:17:23;10.88;;;5.45;;
21786;SDS011;11055;50.870;4.316;2024-01-16T10:20:01;7.13;;;4.07;;
21786;SDS011;11055;50.870;4.316;2024-01-16T10:22:29;7.78;;;4.00;;
21786;SDS011;11055;50.870;4.316;2024-01-16T10:25:09;9.05;;;4.40;;
21786;SDS011;11055;50.870;4.316;2024-01-16T10:27:38;9.60;;;4.53;;
21786;SDS011;11055;50.870;4.316;2024-01-16T10:30:05;8.63;;;4.38;;
21786;SDS011;11055;50.870;4.316;2024-01-16T10:32:36;11.13;;;5.20;;
21786;SDS011;11055;50.870;4.316;2024-01-16T10:37:31;8.20;;;3.85;;
21786;SDS011;11055;50.870;4.316;2024-01-16T10:40:09;7.68;;;4.00;;
21786;SDS011;11055;50.870;4.316;2024-01-16T10:42:40;12.27;;;4.25;;
21786;SDS011;11055;50.870;4.316;2024-01-16T10:45:05;9.35;;;4.07;;
21786;SDS011;11055;50.870;4.316;2024-01-16T10:47:32;7.95;;;4.53;;
21786;SDS011;11055;50.870;4.316;2024-01-16T10:50:02;8.93;;;4.10;;
21786;SDS011;11055;50.870;4.316;2024-01-16T10:52:29;6.32;;;3.60;;
21786;SDS011;11055;50.870;4.316;2024-01-16T10:54:58;10.38;;;3.72;;
21786;SDS011;11055;50.870;4.316;2024-01-16T10:57:30;8.55;;;3.85;;
21786;SDS011;11055;50.870;4.316;2024-01-16T11:00:04;8.60;;;3.55;;
21786;SDS011;11055;50.870;4.316;2024-01-16T11:02:35;10.90;;;3.80;;
21786;SDS011;11055;50.870;4.316;2024-01-16T11:05:07;12.15;;;4.20;;
21786;SDS011;11055;50.870;4.316;2024-01-16T11:07:36;8.30;;;4.32;;
21786;SDS011;11055;50.870;4.316;2024-01-16T11:10:02;9.18;;;4.10;;
21786;SDS011;11055;50.870;4.316;2024-01-16T11:12:29;8.05;;;3.95;;
21786;SDS011;11055;50.870;4.316;2024-01-16T11:14:58;11.82;;;3.97;;
21786;SDS011;11055;50.870;4.316;2024-01-16T11:17:26;7.45;;;3.67;;
21786;SDS011;11055;50.870;4.316;2024-01-16T11:19:55;5.75;;;3.53;;
21786;SDS011;11055;50.870;4.316;2024-01-16T11:22:22;9.88;;;4.45;;
21786;SDS011;11055;50.870;4.316;2024-01-16T11:27:39;9.00;;;3.60;;
21786;SDS011;11055;50.870;4.316;2024-01-16T11:30:06;11.45;;;4.13;;
21786;SDS011;11055;50.870;4.316;2024-01-16T11:32:35;9.23;;;4.85;;
21786;SDS011;11055;50.870;4.316;2024-01-16T11:35:08;12.68;;;5.55;;
21786;SDS011;11055;50.870;4.316;2024-01-16T11:37:38;22.85;;;13.40;;
21786;SDS011;11055;50.870;4.316;2024-01-16T11:42:47;15.77;;;7.05;;
21786;SDS011;11055;50.870;4.316;2024-01-16T11:45:47;8.10;;;4.40;;
21786;SDS011;11055;50.870;4.316;2024-01-16T11:48:09;11.30;;;4.25;;
21786;SDS011;11055;50.870;4.316;2024-01-16T11:50:35;9.95;;;3.88;;
21786;SDS011;11055;50.870;4.316;2024-01-16T11:53:01;8.40;;;3.60;;
21786;SDS011;11055;50.870;4.316;2024-01-16T11:55:30;9.95;;;4.05;;
21786;SDS011;11055;50.870;4.316;2024-01-16T12:00:47;9.85;;;4.63;;
21786;SDS011;11055;50.870;4.316;2024-01-16T12:03:16;9.52;;;3.95;;
21786;SDS011;11055;50.870;4.316;2024-01-16T12:05:43;8.88;;;4.20;;
21786;SDS011;11055;50.870;4.316;2024-01-16T12:08:09;13.95;;;9.15;;
21786;SDS011;11055;50.870;4.316;2024-01-16T12:10:45;8.00;;;4.10;;
21786;SDS011;11055;50.870;4.316;2024-01-16T12:13:14;9.95;;;4.22;;
21786;SDS011;11055;50.870;4.316;2024-01-16T12:15:40;5.55;;;3.53;;
21786;SDS011;11055;50.870;4.316;2024-01-16T12:18:06;7.13;;;3.90;;
21786;SDS011;11055;50.870;4.316;2024-01-16T12:20:33;10.70;;;4.28;;
21786;SDS011;11055;50.870;4.316;2024-01-16T12:23:05;7.72;;;3.78;;
21786;SDS011;11055;50.870;4.316;2024-01-16T12:30:29;8.35;;;4.32;;
21786;SDS011;11055;50.870;4.316;2024-01-16T12:35:47;11.18;;;3.97;;
21786;SDS011;11055;50.870;4.316;2024-01-16T12:38:14;9.70;;;4.38;;
21786;SDS011;11055;50.870;4.316;2024-01-16T12:40:59;6.90;;;3.80;;
21786;SDS011;11055;50.870;4.316;2024-01-16T12:43:27;7.82;;;4.38;;
21786;SDS011;11055;50.870;4.316;2024-01-16T12:45:56;9.75;;;4.85;;
21786;SDS011;11055;50.870;4.316;2024-01-16T12:48:22;10.82;;;4.00;;
21786;SDS011;11055;50.870;4.316;2024-01-16T12:50:50;11.15;;;4.18;;
21786;SDS011;11055;50.870;4.316;2024-01-16T12:53:15;10.70;;;3.30;;
21786;SDS011;11055;50.870;4.316;2024-01-16T12:55:44;8.75;;;3.90;;
21786;SDS011;11055;50.870;4.316;2024-01-16T13:00:48;17.85;;;9.68;;
21786;SDS011;11055;50.870;4.316;2024-01-16T13:03:17;12.95;;;4.68;;
21786;SDS011;11055;50.870;4.316;2024-01-16T13:05:57;9.13;;;3.55;;
21786;SDS011;11055;50.870;4.316;2024-01-16T13:08:25;11.40;;;4.80;;
21786;SDS011;11055;50.870;4.316;2024-01-16T13:13:47;14.73;;;8.07;;
21786;SDS011;11055;50.870;4.316;2024-01-16T13:16:16;12.60;;;8.00;;
21786;SDS011;11055;50.870;4.316;2024-01-16T13:18:42;11.52;;;5.15;;
21786;SDS011;11055;50.870;4.316;2024-01-16T13:21:08;8.52;;;3.35;;
21786;SDS011;11055;50.870;4.316;2024-01-16T13:23:34;15.40;;;7.03;;
21786;SDS011;11055;50.870;4.316;2024-01-16T13:26:01;22.40;;;12.00;;
21786;SDS011;11055;50.870;4.316;2024-01-16T13:28:30;19.10;;;6.75;;
21786;SDS011;11055;50.870;4.316;2024-01-16T13:30:55;7.88;;;3.80;;
21786;SDS011;11055;50.870;4.316;2024-01-16T13:33:25;8.43;;;3.75;;
21786;SDS011;11055;50.870;4.316;2024-01-16T13:35:52;7.00;;;4.20;;
21786;SDS011;11055;50.870;4.316;2024-01-16T13:38:19;5.85;;;3.63;;
21786;SDS011;11055;50.870;4.316;2024-01-16T13:40:45;6.85;;;3.38;;
21786;SDS011;11055;50.870;4.316;2024-01-16T13:43:11;9.93;;;4.22;;
21786;SDS011;11055;50.870;4.316;2024-01-16T13:45:38;6.03;;;3.55;;
21786;SDS011;11055;50.870;4.316;2024-01-16T13:48:04;7.88;;;2.88;;
21786;SDS011;11055;50.870;4.316;2024-01-16T13:50:31;10.52;;;3.75;;
21786;SDS011;11055;50.870;4.316;2024-01-16T13:52:58;8.02;;;3.55;;
21786;SDS011;11055;50.870;4.316;2024-01-16T13:55:24;11.10;;;3.45;;
21786;SDS011;11055;50.870;4.316;2024-01-16T13:57:50;9.57;;;4.00;;
21786;SDS011;11055;50.870;4.316;2024-01-16T14:00:16;10.05;;;3.97;;
21786;SDS011;11055;50.870;4.316;2024-01-16T14:02:43;8.30;;;4.50;;
21786;SDS011;11055;50.870;4.316;2024-01-16T14:05:10;9.55;;;3.20;;
21786;SDS011;11055;50.870;4.316;2024-01-16T14:07:37;8.40;;;3.90;;
21786;SDS011;11055;50.870;4.316;2024-01-16T14:10:10;6.25;;;3.08;;
21786;SDS011;11055;50.870;4.316;2024-01-16T14:12:37;7.88;;;3.80;;
21786;SDS011;11055;50.870;4.316;2024-01-16T14:15:03;9.65;;;3.15;;
21786;SDS011;11055;50.870;4.316;2024-01-16T14:17:34;7.78;;;2.30;;
21786;SDS011;11055;50.870;4.316;2024-01-16T14:20:00;7.13;;;3.30;;
21786;SDS011;11055;50.870;4.316;2024-01-16T14:22:26;6.88;;;2.67;;
21786;SDS011;11055;50.870;4.316;2024-01-16T14:24:52;6.75;;;3.00;;
21786;SDS011;11055;50.870;4.316;2024-01-16T14:27:18;8.15;;;2.97;;
21786;SDS011;11055;50.870;4.316;2024-01-16T14:29:44;10.60;;;5.45;;
21786;SDS011;11055;50.870;4.316;2024-01-16T14:32:09;6.85;;;4.47;;
21786;SDS011;11055;50.870;4.316;2024-01-16T14:34:35;8.05;;;3.55;;
21786;SDS011;11055;50.870;4.316;2024-01-16T14:37:01;7.38;;;4.00;;
21786;SDS011;11055;50.870;4.316;2024-01-16T14:39:27;10.55;;;5.38;;
21786;SDS011;11055;50.870;4.316;2024-01-16T14:41:56;9.82;;;4.32;;
21786;SDS011;11055;50.870;4.316;2024-01-16T14:44:23;5.85;;;2.88;;
21786;SDS011;11055;50.870;4.316;2024-01-16T14:46:49;13.07;;;6.72;;
21786;SDS011;11055;50.870;4.316;2024-01-16T14:49:14;11.07;;;6.03;;
21786;SDS011;11055;50.870;4.316;2024-01-16T14:51:41;14.77;;;7.22;;
21786;SDS011;11055;50.870;4.316;2024-01-16T14:54:08;10.60;;;4.97;;
21786;SDS011;11055;50.870;4.316;2024-01-16T14:56:35;7.55;;;4.55;;
21786;SDS011;11055;50.870;4.316;2024-01-16T14:59:01;12.98;;;7.10;;
21786;SDS011;11055;50.870;4.316;2024-01-16T15:01:26;7.20;;;2.97;;